sensor_id;sensor_type;location;lat;lon;timestamp;pressure;altitude;pressure_sealevel;temperature;humidity
32747;BME280;19118;50.860;13.662;2023-06-24T00:03:36;98177.56;;;13.35;100.00
32747;BME280;19118;50.860;13.662;2023-06-24T00:08:37;98185.25;;;13.45;100.00
32747;BME280;19118;50.860;13.662;2023-06-24T00:13:37;98197.34;;;13.48;100.00
32747;BME280;19118;50.860;13.662;2023-06-24T00:18:38;98201.38;;;13.44;100.00
32747;BME280;19118;50.860;13.662;2023-06-24T00:23:41;98190.69;;;13.37;100.00
32747;BME280;19118;50.860;13.662;2023-06-24T00:28:43;98179.94;;;13.45;100.00
32747;BME280;19118;50.860;13.662;2023-06-24T00:33:43;98182.72;;;13.37;100.00
32747;BME280;19118;50.860;13.662;2023-06-24T00:38:44;98196.50;;;13.47;100.00
32747;BME280;19118;50.860;13.662;2023-06-24T00:43:45;98199.84;;;13.49;100.00
32747;BME280;19118;50.860;13.662;2023-06-24T00:48:45;98205.78;;;13.51;100.00
32747;BME280;19118;50.860;13.662;2023-06-24T00:53:46;98203.66;;;13.47;100.00
32747;BME280;19118;50.860;13.662;2023-06-24T00:58:48;98210.72;;;13.54;100.00
32747;BME280;19118;50.860;13.662;2023-06-24T01:03:50;98211.63;;;13.61;100.00
32747;BME280;19118;50.860;13.662;2023-06-24T01:08:50;98225.94;;;13.60;100.00
32747;BME280;19118;50.860;13.662;2023-06-24T01:13:51;98229.94;;;13.56;100.00
32747;BME280;19118;50.860;13.662;2023-06-24T01:18:56;98233.97;;;13.67;100.00
32747;BME280;19118;50.860;13.662;2023-06-24T01:24:07;98231.78;;;13.71;100.00
32747;BME280;19118;50.860;13.662;2023-06-24T01:29:42;98232.66;;;13.78;100.00
32747;BME280;19118;50.860;13.662;2023-06-24T01:34:59;98245.41;;;13.82;100.00
32747;BME280;19118;50.860;13.662;2023-06-24T01:40:25;98239.09;;;13.83;100.00
32747;BME280;19118;50.860;13.662;2023-06-24T01:45:28;98237.31;;;13.90;100.00
32747;BME280;19118;50.860;13.662;2023-06-24T01:50:32;98252.13;;;13.99;100.00
32747;BME280;19118;50.860;13.662;2023-06-24T01:55:34;98247.84;;;13.98;100.00
32747;BME280;19118;50.860;13.662;2023-06-24T02:00:37;98226.03;;;13.88;100.00
32747;BME280;19118;50.860;13.662;2023-06-24T02:05:39;98231.97;;;13.90;100.00
32747;BME280;19118;50.860;13.662;2023-06-24T02:10:42;98230.66;;;14.01;100.00
32747;BME280;19118;50.860;13.662;2023-06-24T02:15:45;98232.94;;;14.04;100.00
32747;BME280;19118;50.860;13.662;2023-06-24T02:20:46;98242.44;;;14.13;100.00
32747;BME280;19118;50.860;13.662;2023-06-24T02:25:49;98248.25;;;14.17;100.00
32747;BME280;19118;50.860;13.662;2023-06-24T02:30:50;98242.84;;;14.32;100.00
32747;BME280;19118;50.860;13.662;2023-06-24T02:35:51;98232.44;;;14.37;100.00
32747;BME280;19118;50.860;13.662;2023-06-24T02:40:51;98235.75;;;14.39;100.00
32747;BME280;19118;50.860;13.662;2023-06-24T02:45:53;98220.63;;;14.39;100.00
32747;BME280;19118;50.860;13.662;2023-06-24T02:50:54;98236.66;;;14.46;100.00
32747;BME280;19118;50.860;13.662;2023-06-24T02:55:55;98225.94;;;14.39;100.00
32747;BME280;19118;50.860;13.662;2023-06-24T03:01:00;98222.31;;;14.47;100.00
32747;BME280;19118;50.860;13.662;2023-06-24T03:06:20;98209.16;;;14.39;100.00
32747;BME280;19118;50.860;13.662;2023-06-24T03:11:21;98207.47;;;14.38;100.00
32747;BME280;19118;50.860;13.662;2023-06-24T03:16:23;98197.75;;;14.45;100.00
32747;BME280;19118;50.860;13.662;2023-06-24T03:21:45;98198.25;;;14.34;100.00
32747;BME280;19118;50.860;13.662;2023-06-24T03:26:49;98178.03;;;14.39;100.00
32747;BME280;19118;50.860;13.662;2023-06-24T03:31:56;98168.22;;;14.40;100.00
32747;BME280;19118;50.860;13.662;2023-06-24T03:36:59;98156.25;;;14.29;100.00
32747;BME280;19118;50.860;13.662;2023-06-24T03:42:01;98141.84;;;14.23;100.00
32747;BME280;19118;50.860;13.662;2023-06-24T03:47:02;98141.00;;;14.16;100.00
32747;BME280;19118;50.860;13.662;2023-06-24T03:52:02;98135.53;;;14.24;100.00
32747;BME280;19118;50.860;13.662;2023-06-24T03:57:04;98128.03;;;14.35;100.00
32747;BME280;19118;50.860;13.662;2023-06-24T04:02:05;98124.34;;;14.36;100.00
32747;BME280;19118;50.860;13.662;2023-06-24T04:07:09;98128.22;;;14.33;100.00
32747;BME280;19118;50.860;13.662;2023-06-24T04:12:11;98119.91;;;14.43;100.00
32747;BME280;19118;50.860;13.662;2023-06-24T04:17:11;98101.53;;;14.48;100.00
32747;BME280;19118;50.860;13.662;2023-06-24T04:22:12;98090.47;;;14.44;100.00
32747;BME280;19118;50.860;13.662;2023-06-24T04:27:12;98076.97;;;14.46;100.00
32747;BME280;19118;50.860;13.662;2023-06-24T04:32:12;98057.53;;;14.87;100.00
32747;BME280;19118;50.860;13.662;2023-06-24T04:37:13;98059.34;;;15.40;100.00
32747;BME280;19118;50.860;13.662;2023-06-24T04:42:13;98022.25;;;15.85;100.00
32747;BME280;19118;50.860;13.662;2023-06-24T04:47:14;98001.53;;;15.74;100.00
32747;BME280;19118;50.860;13.662;2023-06-24T04:52:15;97994.97;;;15.83;100.00
32747;BME280;19118;50.860;13.662;2023-06-24T04:57:30;97979.97;;;15.36;100.00
32747;BME280;19118;50.860;13.662;2023-06-24T05:02:30;97972.75;;;15.10;100.00
32747;BME280;19118;50.860;13.662;2023-06-24T05:07:30;97970.69;;;14.99;100.00
32747;BME280;19118;50.860;13.662;2023-06-24T05:12:31;97967.00;;;15.00;100.00
32747;BME280;19118;50.860;13.662;2023-06-24T05:17:31;97969.09;;;15.31;100.00
32747;BME280;19118;50.860;13.662;2023-06-24T05:22:31;97962.34;;;15.35;100.00
32747;BME280;19118;50.860;13.662;2023-06-24T05:27:32;97958.22;;;15.59;100.00
32747;BME280;19118;50.860;13.662;2023-06-24T05:32:32;97946.94;;;15.17;100.00
32747;BME280;19118;50.860;13.662;2023-06-24T05:37:32;97940.78;;;14.97;100.00
32747;BME280;19118;50.860;13.662;2023-06-24T05:42:33;97935.03;;;15.00;100.00
32747;BME280;19118;50.860;13.662;2023-06-24T05:47:33;97931.41;;;15.40;100.00
32747;BME280;19118;50.860;13.662;2023-06-24T05:52:34;97920.34;;;15.63;100.00
32747;BME280;19118;50.860;13.662;2023-06-24T05:57:34;97893.44;;;15.38;100.00
32747;BME280;19118;50.860;13.662;2023-06-24T06:02:34;97882.19;;;15.43;100.00
32747;BME280;19118;50.860;13.662;2023-06-24T06:07:35;97878.25;;;15.59;100.00
32747;BME280;19118;50.860;13.662;2023-06-24T06:12:38;97867.41;;;15.67;100.00
32747;BME280;19118;50.860;13.662;2023-06-24T06:17:38;97860.22;;;15.48;100.00
32747;BME280;19118;50.860;13.662;2023-06-24T06:22:39;97847.16;;;15.06;100.00
32747;BME280;19118;50.860;13.662;2023-06-24T06:27:39;97851.00;;;14.91;100.00
32747;BME280;19118;50.860;13.662;2023-06-24T06:32:39;97844.06;;;15.09;100.00
32747;BME280;19118;50.860;13.662;2023-06-24T06:37:40;97842.22;;;15.10;100.00
32747;BME280;19118;50.860;13.662;2023-06-24T06:42:40;97832.56;;;15.15;100.00
32747;BME280;19118;50.860;13.662;2023-06-24T06:47:40;97832.78;;;15.14;100.00
32747;BME280;19118;50.860;13.662;2023-06-24T06:52:40;97820.28;;;15.08;100.00
32747;BME280;19118;50.860;13.662;2023-06-24T06:57:41;97817.00;;;15.12;100.00
32747;BME280;19118;50.860;13.662;2023-06-24T07:02:41;97811.66;;;15.26;100.00
32747;BME280;19118;50.860;13.662;2023-06-24T07:07:43;97788.38;;;15.86;100.00
32747;BME280;19118;50.860;13.662;2023-06-24T07:12:45;97750.28;;;16.42;100.00
32747;BME280;19118;50.860;13.662;2023-06-24T07:17:46;97737.19;;;16.90;100.00
32747;BME280;19118;50.860;13.662;2023-06-24T07:22:46;97711.41;;;17.39;100.00
32747;BME280;19118;50.860;13.662;2023-06-24T07:27:47;97691.81;;;17.45;100.00
32747;BME280;19118;50.860;13.662;2023-06-24T07:32:47;97693.53;;;17.88;100.00
32747;BME280;19118;50.860;13.662;2023-06-24T07:37:48;97684.63;;;18.36;100.00
32747;BME280;19118;50.860;13.662;2023-06-24T07:42:48;97681.09;;;18.23;100.00
32747;BME280;19118;50.860;13.662;2023-06-24T07:47:48;97686.06;;;19.20;100.00
32747;BME280;19118;50.860;13.662;2023-06-24T07:52:49;97687.72;;;18.74;100.00
32747;BME280;19118;50.860;13.662;2023-06-24T07:57:49;97690.00;;;19.29;100.00
32747;BME280;19118;50.860;13.662;2023-06-24T08:02:50;97686.41;;;18.65;100.00
32747;BME280;19118;50.860;13.662;2023-06-24T08:07:51;97693.81;;;18.40;100.00
32747;BME280;19118;50.860;13.662;2023-06-24T08:12:52;97687.63;;;18.27;100.00
32747;BME280;19118;50.860;13.662;2023-06-24T08:17:53;97686.09;;;18.31;100.00
32747;BME280;19118;50.860;13.662;2023-06-24T08:22:53;97691.19;;;17.80;100.00
32747;BME280;19118;50.860;13.662;2023-06-24T08:27:53;97695.75;;;18.32;100.00
32747;BME280;19118;50.860;13.662;2023-06-24T08:32:54;97710.31;;;18.25;100.00
32747;BME280;19118;50.860;13.662;2023-06-24T08:37:54;97703.31;;;18.77;100.00
32747;BME280;19118;50.860;13.662;2023-06-24T08:42:54;97700.19;;;18.92;100.00
32747;BME280;19118;50.860;13.662;2023-06-24T08:47:55;97716.84;;;18.82;100.00
32747;BME280;19118;50.860;13.662;2023-06-24T08:52:56;97718.00;;;18.86;100.00
32747;BME280;19118;50.860;13.662;2023-06-24T08:57:58;97727.47;;;18.36;100.00
32747;BME280;19118;50.860;13.662;2023-06-24T09:02:58;97730.81;;;18.31;100.00
32747;BME280;19118;50.860;13.662;2023-06-24T09:07:59;97747.03;;;19.13;100.00
32747;BME280;19118;50.860;13.662;2023-06-24T09:13:00;97742.00;;;19.28;100.00
32747;BME280;19118;50.860;13.662;2023-06-24T09:18:01;97745.75;;;18.80;100.00
32747;BME280;19118;50.860;13.662;2023-06-24T09:23:02;97748.88;;;18.77;100.00
32747;BME280;19118;50.860;13.662;2023-06-24T09:28:03;97761.09;;;18.73;100.00
32747;BME280;19118;50.860;13.662;2023-06-24T09:33:04;97767.88;;;18.87;100.00
32747;BME280;19118;50.860;13.662;2023-06-24T09:38:04;97761.47;;;19.35;100.00
32747;BME280;19118;50.860;13.662;2023-06-24T09:43:05;97760.41;;;19.36;100.00
32747;BME280;19118;50.860;13.662;2023-06-24T09:48:05;97769.63;;;19.52;100.00
32747;BME280;19118;50.860;13.662;2023-06-24T09:53:06;97758.19;;;20.09;100.00
32747;BME280;19118;50.860;13.662;2023-06-24T09:58:06;97769.84;;;19.74;100.00
32747;BME280;19118;50.860;13.662;2023-06-24T10:03:07;97751.28;;;20.41;100.00
32747;BME280;19118;50.860;13.662;2023-06-24T10:08:08;97761.91;;;21.32;100.00
32747;BME280;19118;50.860;13.662;2023-06-24T10:13:09;97773.44;;;20.48;100.00
32747;BME280;19118;50.860;13.662;2023-06-24T10:23:41;97773.50;;;21.32;100.00
32747;BME280;19118;50.860;13.662;2023-06-24T10:29:08;97766.22;;;21.71;97.34
32747;BME280;19118;50.860;13.662;2023-06-24T10:34:32;97780.31;;;21.23;100.00
32747;BME280;19118;50.860;13.662;2023-06-24T10:39:51;97782.06;;;20.22;99.83
32747;BME280;19118;50.860;13.662;2023-06-24T10:45:02;97783.13;;;20.49;100.00
32747;BME280;19118;50.860;13.662;2023-06-24T10:50:20;97775.31;;;20.48;100.00
32747;BME280;19118;50.860;13.662;2023-06-24T10:55:23;97773.38;;;19.28;100.00
32747;BME280;19118;50.860;13.662;2023-06-24T11:00:25;97768.44;;;20.85;100.00
32747;BME280;19118;50.860;13.662;2023-06-24T11:05:25;97763.72;;;21.87;95.75
32747;BME280;19118;50.860;13.662;2023-06-24T11:10:25;97763.53;;;22.15;85.73
32747;BME280;19118;50.860;13.662;2023-06-24T11:15:26;97756.47;;;20.31;98.49
32747;BME280;19118;50.860;13.662;2023-06-24T11:20:26;97756.63;;;19.84;100.00
32747;BME280;19118;50.860;13.662;2023-06-24T11:25:27;97756.25;;;20.49;100.00
32747;BME280;19118;50.860;13.662;2023-06-24T11:30:27;97751.38;;;20.46;100.00
32747;BME280;19118;50.860;13.662;2023-06-24T11:35:27;97745.69;;;20.59;95.02
32747;BME280;19118;50.860;13.662;2023-06-24T11:40:30;97739.09;;;20.50;95.87
32747;BME280;19118;50.860;13.662;2023-06-24T11:45:31;97746.47;;;20.15;100.00
32747;BME280;19118;50.860;13.662;2023-06-24T11:50:31;97740.53;;;20.13;100.00
32747;BME280;19118;50.860;13.662;2023-06-24T11:55:31;97730.47;;;20.99;95.90
32747;BME280;19118;50.860;13.662;2023-06-24T12:00:37;97717.97;;;21.26;92.19
32747;BME280;19118;50.860;13.662;2023-06-24T12:05:39;97718.09;;;19.90;100.00
32747;BME280;19118;50.860;13.662;2023-06-24T12:10:45;97726.59;;;19.99;100.00
32747;BME280;19118;50.860;13.662;2023-06-24T12:15:45;97726.31;;;21.08;100.00
32747;BME280;19118;50.860;13.662;2023-06-24T12:20:45;97725.38;;;21.36;90.21
32747;BME280;19118;50.860;13.662;2023-06-24T12:25:46;97716.00;;;21.21;92.77
32747;BME280;19118;50.860;13.662;2023-06-24T12:30:46;97712.81;;;20.52;100.00
32747;BME280;19118;50.860;13.662;2023-06-24T12:35:46;97695.59;;;20.87;100.00
32747;BME280;19118;50.860;13.662;2023-06-24T12:40:47;97699.25;;;20.81;100.00
32747;BME280;19118;50.860;13.662;2023-06-24T12:45:48;97694.31;;;20.56;100.00
32747;BME280;19118;50.860;13.662;2023-06-24T12:50:48;97701.88;;;20.76;100.00
32747;BME280;19118;50.860;13.662;2023-06-24T12:55:52;97709.94;;;20.76;100.00
32747;BME280;19118;50.860;13.662;2023-06-24T13:00:53;97694.13;;;20.96;100.00
32747;BME280;19118;50.860;13.662;2023-06-24T13:05:53;97701.53;;;20.72;100.00
32747;BME280;19118;50.860;13.662;2023-06-24T13:10:54;97698.50;;;21.02;100.00
32747;BME280;19118;50.860;13.662;2023-06-24T13:15:54;97692.59;;;21.22;96.53
32747;BME280;19118;50.860;13.662;2023-06-24T13:20:54;97688.47;;;21.53;98.21
32747;BME280;19118;50.860;13.662;2023-06-24T13:25:55;97695.72;;;21.14;95.17
32747;BME280;19118;50.860;13.662;2023-06-24T13:30:55;97687.84;;;21.46;100.00
32747;BME280;19118;50.860;13.662;2023-06-24T13:35:55;97692.06;;;21.86;100.00
32747;BME280;19118;50.860;13.662;2023-06-24T13:40:56;97692.97;;;21.69;100.00
32747;BME280;19118;50.860;13.662;2023-06-24T13:45:56;97690.44;;;21.63;94.91
32747;BME280;19118;50.860;13.662;2023-06-24T13:50:57;97686.91;;;21.57;91.49
32747;BME280;19118;50.860;13.662;2023-06-24T13:55:57;97684.44;;;21.77;90.67
32747;BME280;19118;50.860;13.662;2023-06-24T14:00:58;97675.81;;;21.32;96.31
32747;BME280;19118;50.860;13.662;2023-06-24T14:05:58;97682.31;;;21.36;89.52
32747;BME280;19118;50.860;13.662;2023-06-24T14:11:02;97678.00;;;21.35;81.68
32747;BME280;19118;50.860;13.662;2023-06-24T14:16:03;97678.78;;;21.52;75.29
32747;BME280;19118;50.860;13.662;2023-06-24T14:21:05;97683.09;;;21.31;84.21
32747;BME280;19118;50.860;13.662;2023-06-24T14:26:06;97672.81;;;21.50;91.08
32747;BME280;19118;50.860;13.662;2023-06-24T14:31:06;97665.38;;;21.35;89.76
32747;BME280;19118;50.860;13.662;2023-06-24T14:36:06;97673.25;;;21.42;88.97
32747;BME280;19118;50.860;13.662;2023-06-24T14:41:07;97666.59;;;21.49;88.06
32747;BME280;19118;50.860;13.662;2023-06-24T14:46:07;97661.72;;;21.68;81.30
32747;BME280;19118;50.860;13.662;2023-06-24T14:51:08;97656.72;;;21.77;84.83
32747;BME280;19118;50.860;13.662;2023-06-24T14:56:08;97648.63;;;21.77;89.02
32747;BME280;19118;50.860;13.662;2023-06-24T15:01:08;97655.09;;;21.54;85.23
32747;BME280;19118;50.860;13.662;2023-06-24T15:06:09;97648.88;;;21.75;84.19
32747;BME280;19118;50.860;13.662;2023-06-24T15:11:09;97645.72;;;21.57;89.32
32747;BME280;19118;50.860;13.662;2023-06-24T15:16:09;97640.81;;;21.75;88.22
32747;BME280;19118;50.860;13.662;2023-06-24T15:21:10;97636.19;;;21.98;91.88
32747;BME280;19118;50.860;13.662;2023-06-24T15:26:10;97629.66;;;21.94;89.06
32747;BME280;19118;50.860;13.662;2023-06-24T15:31:10;97623.97;;;22.17;92.02
32747;BME280;19118;50.860;13.662;2023-06-24T15:36:11;97619.28;;;22.34;91.18
32747;BME280;19118;50.860;13.662;2023-06-24T15:41:11;97619.63;;;22.11;90.71
32747;BME280;19118;50.860;13.662;2023-06-24T15:46:14;97617.25;;;22.20;92.96
32747;BME280;19118;50.860;13.662;2023-06-24T15:51:14;97615.00;;;22.38;88.87
32747;BME280;19118;50.860;13.662;2023-06-24T15:56:14;97610.28;;;22.56;88.10
32747;BME280;19118;50.860;13.662;2023-06-24T16:01:15;97617.13;;;22.31;91.12
32747;BME280;19118;50.860;13.662;2023-06-24T16:06:15;97616.72;;;23.54;83.99
32747;BME280;19118;50.860;13.662;2023-06-24T16:11:15;97616.16;;;25.41;67.81
32747;BME280;19118;50.860;13.662;2023-06-24T16:16:16;97612.41;;;25.86;61.83
32747;BME280;19118;50.860;13.662;2023-06-24T16:21:17;97613.88;;;26.47;60.81
32747;BME280;19118;50.860;13.662;2023-06-24T16:26:17;97607.00;;;26.83;58.83
32747;BME280;19118;50.860;13.662;2023-06-24T16:31:17;97601.47;;;27.84;57.44
32747;BME280;19118;50.860;13.662;2023-06-24T16:36:18;97609.38;;;28.18;52.21
32747;BME280;19118;50.860;13.662;2023-06-24T16:41:18;97607.56;;;27.33;53.28
32747;BME280;19118;50.860;13.662;2023-06-24T16:46:18;97609.25;;;27.72;55.18
32747;BME280;19118;50.860;13.662;2023-06-24T16:51:18;97602.72;;;27.92;51.54
32747;BME280;19118;50.860;13.662;2023-06-24T16:56:19;97597.81;;;29.33;49.64
32747;BME280;19118;50.860;13.662;2023-06-24T17:01:19;97595.66;;;30.74;46.68
32747;BME280;19118;50.860;13.662;2023-06-24T17:06:20;97598.28;;;30.12;46.69
32747;BME280;19118;50.860;13.662;2023-06-24T17:11:20;97602.91;;;31.49;42.75
32747;BME280;19118;50.860;13.662;2023-06-24T17:16:21;97605.41;;;30.97;44.28
32747;BME280;19118;50.860;13.662;2023-06-24T17:21:21;97596.06;;;30.00;45.92
32747;BME280;19118;50.860;13.662;2023-06-24T17:26:21;97598.06;;;29.22;48.71
32747;BME280;19118;50.860;13.662;2023-06-24T17:31:22;97606.94;;;28.54;49.97
32747;BME280;19118;50.860;13.662;2023-06-24T17:36:22;97600.31;;;28.41;49.48
32747;BME280;19118;50.860;13.662;2023-06-24T17:41:22;97601.38;;;28.59;49.88
32747;BME280;19118;50.860;13.662;2023-06-24T17:46:23;97599.69;;;28.31;50.80
32747;BME280;19118;50.860;13.662;2023-06-24T17:51:23;97596.03;;;27.84;50.93
32747;BME280;19118;50.860;13.662;2023-06-24T17:56:24;97600.25;;;27.10;52.54
32747;BME280;19118;50.860;13.662;2023-06-24T18:01:25;97603.00;;;26.12;55.84
32747;BME280;19118;50.860;13.662;2023-06-24T18:06:29;97604.03;;;25.23;60.47
32747;BME280;19118;50.860;13.662;2023-06-24T18:11:31;97599.13;;;26.87;54.64
32747;BME280;19118;50.860;13.662;2023-06-24T18:16:31;97600.63;;;24.82;58.10
32747;BME280;19118;50.860;13.662;2023-06-24T18:21:31;97596.19;;;22.44;70.18
32747;BME280;19118;50.860;13.662;2023-06-24T18:26:32;97590.03;;;21.62;79.24
32747;BME280;19118;50.860;13.662;2023-06-24T18:31:32;97588.13;;;21.14;85.82
32747;BME280;19118;50.860;13.662;2023-06-24T18:36:33;97582.94;;;20.85;92.58
32747;BME280;19118;50.860;13.662;2023-06-24T18:41:33;97573.59;;;20.71;100.00
32747;BME280;19118;50.860;13.662;2023-06-24T18:46:33;97559.28;;;20.32;100.00
32747;BME280;19118;50.860;13.662;2023-06-24T18:51:34;97545.72;;;19.88;100.00
32747;BME280;19118;50.860;13.662;2023-06-24T18:56:34;97540.09;;;19.44;100.00
32747;BME280;19118;50.860;13.662;2023-06-24T19:01:34;97548.53;;;19.08;100.00
32747;BME280;19118;50.860;13.662;2023-06-24T19:06:35;97536.94;;;18.79;100.00
32747;BME280;19118;50.860;13.662;2023-06-24T19:11:35;97537.19;;;18.54;100.00
32747;BME280;19118;50.860;13.662;2023-06-24T19:16:35;97534.41;;;18.14;100.00
32747;BME280;19118;50.860;13.662;2023-06-24T19:21:36;97528.75;;;17.68;100.00
32747;BME280;19118;50.860;13.662;2023-06-24T19:26:36;97532.78;;;17.59;100.00
32747;BME280;19118;50.860;13.662;2023-06-24T19:31:36;97528.53;;;17.10;100.00
32747;BME280;19118;50.860;13.662;2023-06-24T19:36:37;97528.66;;;16.85;100.00
32747;BME280;19118;50.860;13.662;2023-06-24T19:41:37;97537.63;;;16.54;100.00
32747;BME280;19118;50.860;13.662;2023-06-24T19:46:37;97541.81;;;16.25;100.00
32747;BME280;19118;50.860;13.662;2023-06-24T19:51:38;97535.28;;;15.96;100.00
32747;BME280;19118;50.860;13.662;2023-06-24T19:56:38;97540.31;;;15.86;100.00
32747;BME280;19118;50.860;13.662;2023-06-24T20:01:39;97539.38;;;15.73;100.00
32747;BME280;19118;50.860;13.662;2023-06-24T20:06:39;97537.22;;;15.57;100.00
32747;BME280;19118;50.860;13.662;2023-06-24T20:11:39;97539.31;;;15.49;100.00
32747;BME280;19118;50.860;13.662;2023-06-24T20:16:40;97534.50;;;15.32;100.00
32747;BME280;19118;50.860;13.662;2023-06-24T20:21:40;97543.19;;;15.14;100.00
32747;BME280;19118;50.860;13.662;2023-06-24T20:26:41;97537.97;;;14.95;100.00
32747;BME280;19118;50.860;13.662;2023-06-24T20:31:41;97541.47;;;14.89;100.00
32747;BME280;19118;50.860;13.662;2023-06-24T20:36:42;97545.41;;;14.79;100.00
32747;BME280;19118;50.860;13.662;2023-06-24T20:41:42;97540.13;;;14.66;100.00
32747;BME280;19118;50.860;13.662;2023-06-24T20:46:42;97535.41;;;14.68;100.00
32747;BME280;19118;50.860;13.662;2023-06-24T20:51:43;97545.69;;;14.58;100.00
32747;BME280;19118;50.860;13.662;2023-06-24T20:56:47;97538.72;;;14.44;100.00
32747;BME280;19118;50.860;13.662;2023-06-24T21:01:47;97535.88;;;14.25;100.00
32747;BME280;19118;50.860;13.662;2023-06-24T21:06:47;97539.81;;;14.16;100.00
32747;BME280;19118;50.860;13.662;2023-06-24T21:11:47;97536.34;;;14.09;100.00
32747;BME280;19118;50.860;13.662;2023-06-24T21:16:48;97536.53;;;14.01;100.00
32747;BME280;19118;50.860;13.662;2023-06-24T21:21:48;97530.03;;;13.84;100.00
32747;BME280;19118;50.860;13.662;2023-06-24T21:26:48;97537.38;;;13.75;100.00
32747;BME280;19118;50.860;13.662;2023-06-24T21:31:49;97535.72;;;13.67;100.00
32747;BME280;19118;50.860;13.662;2023-06-24T21:36:49;97542.06;;;13.60;100.00
32747;BME280;19118;50.860;13.662;2023-06-24T21:41:49;97541.84;;;13.42;100.00
32747;BME280;19118;50.860;13.662;2023-06-24T21:46:50;97550.44;;;13.37;100.00
32747;BME280;19118;50.860;13.662;2023-06-24T21:51:52;97547.53;;;13.32;100.00
32747;BME280;19118;50.860;13.662;2023-06-24T21:56:53;97544.44;;;13.22;100.00
32747;BME280;19118;50.860;13.662;2023-06-24T22:01:54;97549.28;;;13.11;100.00
32747;BME280;19118;50.860;13.662;2023-06-24T22:06:54;97542.13;;;13.05;100.00
32747;BME280;19118;50.860;13.662;2023-06-24T22:11:54;97543.78;;;13.06;100.00
32747;BME280;19118;50.860;13.662;2023-06-24T22:16:55;97544.78;;;13.05;100.00
32747;BME280;19118;50.860;13.662;2023-06-24T22:21:55;97550.06;;;12.92;100.00
32747;BME280;19118;50.860;13.662;2023-06-24T22:26:55;97552.09;;;12.97;100.00
32747;BME280;19118;50.860;13.662;2023-06-24T22:31:56;97551.25;;;12.90;100.00
32747;BME280;19118;50.860;13.662;2023-06-24T22:36:56;97550.63;;;12.81;100.00
32747;BME280;19118;50.860;13.662;2023-06-24T22:41:57;97548.59;;;12.83;100.00
32747;BME280;19118;50.860;13.662;2023-06-24T22:46:57;97547.31;;;12.72;100.00
32747;BME280;19118;50.860;13.662;2023-06-24T22:52:00;97550.13;;;12.64;100.00
32747;BME280;19118;50.860;13.662;2023-06-24T22:57:00;97546.03;;;12.62;100.00
32747;BME280;19118;50.860;13.662;2023-06-24T23:02:00;97542.72;;;12.53;100.00
32747;BME280;19118;50.860;13.662;2023-06-24T23:07:01;97551.47;;;12.47;100.00
32747;BME280;19118;50.860;13.662;2023-06-24T23:12:02;97545.91;;;12.35;100.00
32747;BME280;19118;50.860;13.662;2023-06-24T23:17:04;97541.75;;;12.26;100.00
32747;BME280;19118;50.860;13.662;2023-06-24T23:22:05;97550.47;;;12.20;100.00
32747;BME280;19118;50.860;13.662;2023-06-24T23:27:06;97551.88;;;12.16;100.00
32747;BME280;19118;50.860;13.662;2023-06-24T23:32:09;97554.28;;;12.11;100.00
32747;BME280;19118;50.860;13.662;2023-06-24T23:37:10;97549.84;;;12.18;100.00
32747;BME280;19118;50.860;13.662;2023-06-24T23:42:12;97552.91;;;12.15;100.00
32747;BME280;19118;50.860;13.662;2023-06-24T23:47:12;97550.78;;;12.04;100.00
32747;BME280;19118;50.860;13.662;2023-06-24T23:52:12;97546.25;;;11.98;100.00
32747;BME280;19118;50.860;13.662;2023-06-24T23:57:13;97540.72;;;11.92;100.00
